createdAt,value
2018-09-11T00:01:20.896Z,74.89
2018-09-11T00:03:47.250Z,74.97
2018-09-11T00:06:13.560Z,74.97
2018-09-11T00:08:39.922Z,74.80
2018-09-11T00:11:06.244Z,74.72
2018-09-11T00:13:32.572Z,75.00
2018-09-11T00:15:58.897Z,75.01
2018-09-11T00:18:25.210Z,75.13
2018-09-11T00:20:51.561Z,75.60
2018-09-11T00:23:17.871Z,75.97
2018-09-11T00:25:44.190Z,76.04
2018-09-11T00:28:10.507Z,75.90
2018-09-11T00:30:36.824Z,75.42
2018-09-11T00:33:03.139Z,75.81
2018-09-11T00:35:29.448Z,75.59
2018-09-11T00:37:55.758Z,76.04
2018-09-11T00:40:22.074Z,76.64
2018-09-11T00:42:48.390Z,76.05
2018-09-11T00:45:14.706Z,75.99
2018-09-11T00:47:41.019Z,75.47
2018-09-11T00:50:07.332Z,75.82
2018-09-11T00:52:33.644Z,75.18
2018-09-11T00:54:59.954Z,75.08
2018-09-11T00:57:26.269Z,75.33
2018-09-11T00:59:52.614Z,75.40
2018-09-11T01:02:18.926Z,74.93
2018-09-11T01:04:45.276Z,75.05
2018-09-11T01:07:11.594Z,75.13
2018-09-11T01:09:37.909Z,74.89
2018-09-11T01:12:04.224Z,75.46
2018-09-11T01:14:30.542Z,75.12
2018-09-11T01:16:56.860Z,74.94
2018-09-11T01:19:23.214Z,75.00
2018-09-11T01:21:49.524Z,75.14
2018-09-11T01:24:15.841Z,75.42
2018-09-11T01:26:42.147Z,75.49
2018-09-11T01:29:08.505Z,75.90
2018-09-11T01:31:34.820Z,75.81
2018-09-11T01:34:01.152Z,76.48
2018-09-11T01:36:27.472Z,76.92
2018-09-11T01:38:53.792Z,76.41
2018-09-11T01:41:20.100Z,76.32
2018-09-11T01:43:46.417Z,76.48
2018-09-11T01:46:12.729Z,76.62
2018-09-11T01:48:39.063Z,76.31
2018-09-11T01:51:05.371Z,76.25
2018-09-11T01:53:31.687Z,76.78
2018-09-11T01:55:58.009Z,76.65
2018-09-11T01:58:24.332Z,76.81
2018-09-11T02:00:50.643Z,77.20
2018-09-11T02:03:16.959Z,77.05
2018-09-11T02:05:43.326Z,77.71
2018-09-11T02:08:09.629Z,77.90
2018-09-11T02:10:35.940Z,77.75
2018-09-11T02:13:02.248Z,77.73
2018-09-11T02:15:28.557Z,77.94
2018-09-11T02:17:54.867Z,78.06
2018-09-11T02:20:21.220Z,78.17
2018-09-11T02:22:47.533Z,78.74
2018-09-11T02:25:13.880Z,78.92
2018-09-11T02:27:40.193Z,78.71
2018-09-11T02:30:06.500Z,79.41
2018-09-11T02:32:32.816Z,79.62
2018-09-11T02:34:59.124Z,79.01
2018-09-11T02:37:25.439Z,78.89
2018-09-11T02:39:51.790Z,78.68
2018-09-11T02:42:18.105Z,78.19
2018-09-11T02:44:44.415Z,78.15
2018-09-11T02:47:10.724Z,78.08
2018-09-11T02:49:37.049Z,78.73
2018-09-11T02:52:03.357Z,78.90
2018-09-11T02:54:29.674Z,78.65
2018-09-11T02:56:55.994Z,78.28
2018-09-11T02:59:22.319Z,78.57
2018-09-11T03:01:48.629Z,78.99
2018-09-11T03:04:14.947Z,79.38
2018-09-11T03:06:41.265Z,78.87
2018-09-11T03:09:07.576Z,78.44
2018-09-11T03:11:33.893Z,78.28
2018-09-11T03:14:00.209Z,78.17
2018-09-11T03:16:26.529Z,78.50
2018-09-11T03:18:52.921Z,78.17
2018-09-11T03:21:19.210Z,78.23
2018-09-11T03:23:45.556Z,78.22
2018-09-11T03:26:11.869Z,78.30
2018-09-11T03:28:38.184Z,78.55
2018-09-11T03:31:04.496Z,78.21
2018-09-11T03:33:30.799Z,78.30
2018-09-11T03:35:57.117Z,78.42
2018-09-11T03:38:23.438Z,77.63
2018-09-11T03:40:49.790Z,77.53
2018-09-11T03:43:16.101Z,77.95
2018-09-11T03:45:42.421Z,77.66
2018-09-11T03:48:08.755Z,77.72
2018-09-11T03:50:35.071Z,77.81
2018-09-11T03:53:01.386Z,78.51
2018-09-11T03:55:27.714Z,78.46
2018-09-11T03:57:54.019Z,78.22
2018-09-11T04:00:20.386Z,78.57
2018-09-11T04:02:46.688Z,78.18
2018-09-11T04:05:13.000Z,77.81
2018-09-11T04:07:39.323Z,78.09
2018-09-11T04:10:05.648Z,78.31
2018-09-11T04:12:31.966Z,78.55
2018-09-11T04:14:58.288Z,79.12
2018-09-11T04:17:24.600Z,78.74
2018-09-11T04:19:50.916Z,77.94
2018-09-11T04:22:17.229Z,77.30
2018-09-11T04:24:43.547Z,76.66
2018-09-11T04:27:09.855Z,75.17
2018-09-11T04:29:36.171Z,74.36
2018-09-11T04:32:02.487Z,73.63
2018-09-11T04:34:28.792Z,72.81
2018-09-11T04:36:55.099Z,72.34
2018-09-11T04:39:21.407Z,71.88
2018-09-11T04:41:47.769Z,71.39
2018-09-11T04:44:14.087Z,69.69
2018-09-11T04:46:40.398Z,69.45
2018-09-11T04:49:06.723Z,68.20
2018-09-11T04:51:33.052Z,67.70
2018-09-11T04:53:59.359Z,67.15
2018-09-11T04:56:25.668Z,66.91
2018-09-11T04:58:51.984Z,65.98
2018-09-11T05:01:18.309Z,65.98
2018-09-11T05:03:44.621Z,65.70
2018-09-11T05:06:10.945Z,64.87
2018-09-11T05:08:37.251Z,64.66
2018-09-11T05:11:03.559Z,64.22
2018-09-11T05:13:29.880Z,63.61
2018-09-11T05:15:56.188Z,63.46
2018-09-11T05:18:22.505Z,63.36
2018-09-11T05:20:48.811Z,62.99
2018-09-11T05:23:15.125Z,62.74
2018-09-11T05:25:41.448Z,62.63
2018-09-11T05:28:07.761Z,61.96
2018-09-11T05:30:34.082Z,60.92
2018-09-11T05:33:01.240Z,60.69
2018-09-11T05:35:27.546Z,60.64
2018-09-11T05:37:53.866Z,60.10
2018-09-11T05:40:20.220Z,60.29
2018-09-11T05:42:46.738Z,59.94
2018-09-11T05:45:13.056Z,60.82
2018-09-11T05:47:39.360Z,60.36
2018-09-11T05:50:05.715Z,59.57
2018-09-11T05:52:32.034Z,58.66
2018-09-11T05:54:58.392Z,58.35
2018-09-11T05:57:24.710Z,58.64
2018-09-11T05:59:51.031Z,58.45
2018-09-11T06:02:17.354Z,58.22
2018-09-11T06:04:43.661Z,58.39
2018-09-11T06:07:09.973Z,57.58
2018-09-11T06:09:36.322Z,57.39
2018-09-11T06:12:02.630Z,56.24
2018-09-11T06:14:28.946Z,55.31
2018-09-11T06:16:55.270Z,54.99
2018-09-11T06:19:21.579Z,54.54
2018-09-11T06:21:47.895Z,53.51
2018-09-11T06:24:14.199Z,53.36
2018-09-11T06:26:40.520Z,52.82
2018-09-11T06:29:06.846Z,52.80
2018-09-11T06:31:33.144Z,52.73
2018-09-11T06:33:59.491Z,52.03
2018-09-11T06:36:25.803Z,51.10
2018-09-11T06:38:52.115Z,50.61
2018-09-11T06:41:18.437Z,49.80
2018-09-11T06:43:44.746Z,49.60
2018-09-11T06:46:11.057Z,48.84
2018-09-11T06:48:37.377Z,48.23
2018-09-11T06:51:03.698Z,48.01
2018-09-11T06:53:30.018Z,47.95
2018-09-11T06:55:56.335Z,47.63
2018-09-11T06:58:22.643Z,47.60
2018-09-11T07:00:48.963Z,47.51
2018-09-11T07:03:15.360Z,47.82
2018-09-11T07:05:41.673Z,47.56
2018-09-11T07:08:08.009Z,46.91
2018-09-11T07:10:34.334Z,46.36
2018-09-11T07:13:00.642Z,45.02
2018-09-11T07:15:26.961Z,44.14
2018-09-11T07:17:53.612Z,44.19
2018-09-11T07:20:20.282Z,43.83
2018-09-11T07:22:46.275Z,43.40
2018-09-11T07:25:12.592Z,43.97
2018-09-11T07:27:38.910Z,43.76
2018-09-11T07:30:05.228Z,42.89
2018-09-11T07:32:31.605Z,42.98
2018-09-11T07:34:57.862Z,42.06
2018-09-11T07:37:24.220Z,42.06
2018-09-11T07:39:50.527Z,41.86
2018-09-11T07:42:16.846Z,41.77
2018-09-11T07:44:43.199Z,40.68
2018-09-11T07:47:09.516Z,40.96
2018-09-11T07:49:35.852Z,41.37
2018-09-11T07:52:02.165Z,40.74
2018-09-11T07:54:28.471Z,39.48
2018-09-11T07:56:54.850Z,39.66
2018-09-11T07:59:21.143Z,39.60
2018-09-11T08:01:47.487Z,38.60
2018-09-11T08:04:13.802Z,38.94
2018-09-11T08:06:40.168Z,38.70
2018-09-11T08:09:06.521Z,38.39
2018-09-11T08:11:32.831Z,38.80
2018-09-11T08:13:59.148Z,39.23
2018-09-11T08:16:25.477Z,38.51
2018-09-11T08:18:51.771Z,38.10
2018-09-11T08:21:18.084Z,37.30
2018-09-11T08:23:44.396Z,37.19
2018-09-11T08:26:10.711Z,37.23
2018-09-11T08:28:37.031Z,36.64
2018-09-11T08:31:03.363Z,37.44
2018-09-11T08:33:29.684Z,36.99
2018-09-11T08:35:56.008Z,36.19
2018-09-11T08:38:22.327Z,38.01
2018-09-11T08:40:48.648Z,38.35
2018-09-11T08:43:14.972Z,37.36
2018-09-11T08:45:41.310Z,37.60
2018-09-11T08:48:07.670Z,36.49
2018-09-11T08:50:33.996Z,35.20
2018-09-11T08:53:00.337Z,34.52
2018-09-11T08:55:26.668Z,34.04
2018-09-11T08:57:53.013Z,34.63
2018-09-11T09:00:19.337Z,34.28
2018-09-11T09:02:45.661Z,34.79
2018-09-11T09:05:12.013Z,34.78
2018-09-11T09:07:38.332Z,34.92
2018-09-11T09:10:04.681Z,36.40
2018-09-11T09:12:30.967Z,36.21
2018-09-11T09:14:57.329Z,36.52
2018-09-11T09:17:23.616Z,36.42
2018-09-11T09:19:49.925Z,36.65
2018-09-11T09:22:16.295Z,36.31
2018-09-11T09:24:42.611Z,36.18
2018-09-11T09:27:08.977Z,36.32
2018-09-11T09:29:35.251Z,35.80
2018-09-11T09:32:01.607Z,36.19
2018-09-11T09:34:27.926Z,35.28
2018-09-11T09:36:54.243Z,37.51
2018-09-11T09:39:20.558Z,37.63
2018-09-11T09:41:46.881Z,37.67
2018-09-11T09:44:13.196Z,38.64
2018-09-11T09:46:39.504Z,37.82
2018-09-11T09:49:05.828Z,35.94
2018-09-11T09:51:32.151Z,37.21
2018-09-11T09:53:58.470Z,36.86
2018-09-11T09:56:24.775Z,36.70
2018-09-11T09:58:51.128Z,37.41
2018-09-11T10:01:17.440Z,37.03
2018-09-11T10:03:43.772Z,36.62
2018-09-11T10:06:10.085Z,35.57
2018-09-11T10:08:36.395Z,35.79
2018-09-11T10:11:02.703Z,35.82
2018-09-11T10:13:29.028Z,36.22
2018-09-11T10:15:55.344Z,37.79
2018-09-11T10:18:21.652Z,38.18
2018-09-11T10:20:47.959Z,37.58
2018-09-11T10:23:14.272Z,36.85
2018-09-11T10:25:40.579Z,35.98
2018-09-11T10:28:06.899Z,37.26
2018-09-11T10:30:33.300Z,38.01
2018-09-11T10:32:59.582Z,38.48
2018-09-11T10:35:25.896Z,38.33
2018-09-11T10:37:52.208Z,37.48
2018-09-11T10:40:18.516Z,36.92
2018-09-11T10:42:44.921Z,36.72
2018-09-11T10:45:11.242Z,36.36
2018-09-11T10:47:37.564Z,35.68
2018-09-11T10:50:03.895Z,34.90
2018-09-11T10:52:30.204Z,34.04
2018-09-11T10:54:56.526Z,35.31
2018-09-11T10:57:22.848Z,34.78
2018-09-11T10:59:49.178Z,35.70
2018-09-11T11:02:15.529Z,35.93
2018-09-11T11:04:41.814Z,35.51
2018-09-11T11:07:08.151Z,35.11
2018-09-11T11:09:34.470Z,34.98
2018-09-11T11:12:00.792Z,35.79
2018-09-11T11:14:27.104Z,35.72
2018-09-11T11:16:53.499Z,36.10
2018-09-11T11:19:19.797Z,36.65
2018-09-11T11:21:46.113Z,36.12
2018-09-11T11:24:12.436Z,35.97
2018-09-11T11:26:38.752Z,35.52
2018-09-11T11:29:05.072Z,35.21
2018-09-11T11:31:31.384Z,36.47
2018-09-11T11:33:57.720Z,37.04
2018-09-11T11:36:24.580Z,37.90
2018-09-11T11:38:50.736Z,37.66
2018-09-11T11:41:17.048Z,37.24
2018-09-11T11:43:43.367Z,34.47
2018-09-11T11:46:09.682Z,33.46
2018-09-11T11:48:36.002Z,30.75
2018-09-11T11:51:02.308Z,29.26
2018-09-11T11:53:28.621Z,28.25
2018-09-11T11:55:54.987Z,28.05
2018-09-11T11:58:21.367Z,28.07
2018-09-11T12:00:47.690Z,26.43
2018-09-11T12:03:14.079Z,25.65
2018-09-11T12:05:40.399Z,26.29
2018-09-11T12:08:06.722Z,25.67
2018-09-11T12:10:33.038Z,26.56
2018-09-11T12:12:59.365Z,26.62
2018-09-11T12:15:25.684Z,24.81
2018-09-11T12:17:52.002Z,24.00
2018-09-11T12:20:18.330Z,23.97
2018-09-11T12:22:44.656Z,22.33
2018-09-11T12:25:10.983Z,22.99
2018-09-11T12:27:37.297Z,24.19
2018-09-11T12:30:03.656Z,24.50
2018-09-11T12:32:29.983Z,24.76
2018-09-11T12:34:56.311Z,25.12
2018-09-11T12:37:22.627Z,24.72
2018-09-11T12:39:48.950Z,25.11
2018-09-11T12:42:15.263Z,24.21
2018-09-11T12:44:41.591Z,24.02
2018-09-11T12:47:08.075Z,25.18
2018-09-11T12:49:34.233Z,26.34
2018-09-11T12:52:00.557Z,27.07
2018-09-11T12:54:26.869Z,27.81
2018-09-11T12:56:53.198Z,28.32
2018-09-11T12:59:19.524Z,29.07
2018-09-11T13:01:45.851Z,29.23
2018-09-11T13:04:12.183Z,29.73
2018-09-11T13:06:38.506Z,30.35
2018-09-11T13:09:04.838Z,30.52
2018-09-11T13:11:31.162Z,30.63
2018-09-11T13:13:57.492Z,30.69
2018-09-11T13:16:23.805Z,30.66
2018-09-11T13:18:50.135Z,30.71
2018-09-11T13:21:16.447Z,30.59
2018-09-11T13:23:42.793Z,30.93
2018-09-11T13:26:09.110Z,30.86
2018-09-11T13:28:35.437Z,31.12
2018-09-11T13:31:01.749Z,31.52
2018-09-11T13:33:28.068Z,31.66
2018-09-11T13:35:54.395Z,32.20
2018-09-11T13:38:20.726Z,33.08
2018-09-11T13:40:47.040Z,32.71
2018-09-11T13:43:13.347Z,32.43
2018-09-11T13:45:39.677Z,32.70
2018-09-11T13:48:06.002Z,32.44
2018-09-11T13:50:32.321Z,31.96
2018-09-11T13:52:58.699Z,31.68
2018-09-11T13:55:25.010Z,32.23
2018-09-11T13:57:51.344Z,32.21
2018-09-11T14:00:17.654Z,32.04
2018-09-11T14:02:44.076Z,32.02
2018-09-11T14:05:10.314Z,31.20
2018-09-11T14:07:36.630Z,32.10
2018-09-11T14:10:02.941Z,32.12
2018-09-11T14:12:29.270Z,32.04
2018-09-11T14:14:55.594Z,32.26
2018-09-11T14:17:21.921Z,32.27
2018-09-11T14:19:48.251Z,32.32
2018-09-11T14:22:14.607Z,31.91
2018-09-11T14:24:40.937Z,32.10
2018-09-11T14:27:07.255Z,32.40
2018-09-11T14:29:33.581Z,33.28
2018-09-11T14:31:59.899Z,35.22
2018-09-11T14:34:26.258Z,36.76
2018-09-11T14:36:52.584Z,37.50
2018-09-11T14:39:18.915Z,38.08
2018-09-11T14:41:45.237Z,38.70
2018-09-11T14:44:11.562Z,38.92
2018-09-11T14:46:37.916Z,39.54
2018-09-11T14:49:04.189Z,39.70
2018-09-11T14:51:30.498Z,39.96
2018-09-11T14:53:56.849Z,39.81
2018-09-11T14:56:23.168Z,40.09
2018-09-11T14:58:49.495Z,39.92
2018-09-11T15:01:15.819Z,40.06
2018-09-11T15:03:42.168Z,40.32
2018-09-11T15:06:08.452Z,40.54
2018-09-11T15:08:34.813Z,40.79
2018-09-11T15:11:01.150Z,40.94
2018-09-11T15:13:27.459Z,41.29
2018-09-11T15:15:53.785Z,41.83
2018-09-11T15:18:20.114Z,42.39
2018-09-11T15:20:46.442Z,42.82
2018-09-11T15:23:12.769Z,42.98
2018-09-11T15:25:39.083Z,43.17
2018-09-11T15:28:05.415Z,43.34
2018-09-11T15:30:31.729Z,43.35
2018-09-11T15:32:58.055Z,43.42
2018-09-11T15:35:24.423Z,43.36
2018-09-11T15:37:50.736Z,43.55
2018-09-11T15:40:17.058Z,43.63
2018-09-11T15:42:43.377Z,43.78
2018-09-11T15:45:09.742Z,44.08
2018-09-11T15:47:36.077Z,44.35
2018-09-11T15:50:02.393Z,44.62
2018-09-11T15:52:28.722Z,44.90
2018-09-11T15:54:55.040Z,45.14
2018-09-11T15:57:21.365Z,45.60
2018-09-11T15:59:47.678Z,45.66
2018-09-11T16:02:14.039Z,45.77
2018-09-11T16:04:40.348Z,45.94
2018-09-11T16:07:06.736Z,46.09
2018-09-11T16:09:33.008Z,46.34
2018-09-11T16:11:59.341Z,46.80
2018-09-11T16:14:25.656Z,46.92
2018-09-11T16:16:51.968Z,47.15
2018-09-11T16:19:18.298Z,47.31
2018-09-11T16:21:44.610Z,47.38
2018-09-11T16:24:10.934Z,47.26
2018-09-11T16:26:37.249Z,47.37
2018-09-11T16:29:03.595Z,47.09
2018-09-11T16:31:29.908Z,47.14
2018-09-11T16:33:56.245Z,47.03
2018-09-11T16:36:22.556Z,47.04
2018-09-11T16:38:48.913Z,47.04
2018-09-11T16:41:15.260Z,46.85
2018-09-11T16:43:41.585Z,46.83
2018-09-11T16:46:07.900Z,46.97
2018-09-11T16:48:34.232Z,46.47
2018-09-11T16:51:00.553Z,46.44
2018-09-11T16:53:26.869Z,46.26
2018-09-11T16:55:53.212Z,46.25
2018-09-11T16:58:19.566Z,47.01
2018-09-11T17:00:45.897Z,47.40
2018-09-11T17:03:12.204Z,47.67
2018-09-11T17:05:38.516Z,47.94
2018-09-11T17:08:04.838Z,47.94
2018-09-11T17:10:31.168Z,47.77
2018-09-11T17:12:57.502Z,47.87
2018-09-11T17:15:23.824Z,47.78
2018-09-11T17:17:50.139Z,48.28
2018-09-11T17:20:16.541Z,48.22
2018-09-11T17:22:42.778Z,48.42
2018-09-11T17:25:09.089Z,48.34
2018-09-11T17:27:35.404Z,48.64
2018-09-11T17:30:01.775Z,48.78
2018-09-11T17:32:28.130Z,48.14
2018-09-11T17:34:54.465Z,47.76
2018-09-11T17:37:20.851Z,48.42
2018-09-11T17:39:47.160Z,47.83
2018-09-11T17:42:13.486Z,47.96
2018-09-11T17:44:39.810Z,48.04
2018-09-11T17:47:06.116Z,47.95
2018-09-11T17:49:32.427Z,48.41
2018-09-11T17:51:58.750Z,48.57
2018-09-11T17:54:25.084Z,48.16
2018-09-11T17:56:51.409Z,48.49
2018-09-11T17:59:17.720Z,48.04
2018-09-11T18:01:44.032Z,48.43
2018-09-11T18:04:10.340Z,48.80
2018-09-11T18:06:36.681Z,49.10
2018-09-11T18:09:03.173Z,49.32
2018-09-11T18:11:29.476Z,49.64
2018-09-11T18:13:55.789Z,50.06
2018-09-11T18:16:22.105Z,50.30
2018-09-11T18:18:48.427Z,50.74
2018-09-11T18:21:14.754Z,51.04
2018-09-11T18:23:41.065Z,51.47
2018-09-11T18:26:07.399Z,51.29
2018-09-11T18:28:33.706Z,51.10
2018-09-11T18:31:00.018Z,51.11
2018-09-11T18:33:26.333Z,51.32
2018-09-11T18:35:52.666Z,51.19
2018-09-11T18:38:18.982Z,51.17
2018-09-11T18:40:45.350Z,51.52
2018-09-11T18:43:11.622Z,52.05
2018-09-11T18:45:37.947Z,51.54
2018-09-11T18:48:04.272Z,51.59
2018-09-11T18:50:30.602Z,51.83
2018-09-11T18:52:56.936Z,52.16
2018-09-11T18:55:23.272Z,52.09
2018-09-11T18:57:49.613Z,52.07
2018-09-11T19:00:15.918Z,52.39
2018-09-11T19:02:42.273Z,52.79
2018-09-11T19:05:08.647Z,53.02
2018-09-11T19:07:34.940Z,53.26
2018-09-11T19:10:01.247Z,53.21
2018-09-11T19:12:27.566Z,53.40
2018-09-11T19:14:53.890Z,53.35
2018-09-11T19:17:20.206Z,53.35
2018-09-11T19:19:46.563Z,53.46
2018-09-11T19:22:12.841Z,53.35
2018-09-11T19:24:39.152Z,53.20
2018-09-11T19:27:05.514Z,53.27
2018-09-11T19:29:31.836Z,53.27
2018-09-11T19:31:58.166Z,53.32
2018-09-11T19:34:24.535Z,53.45
2018-09-11T19:36:50.868Z,53.46
2018-09-11T19:39:17.176Z,53.50
2018-09-11T19:41:43.547Z,53.44
2018-09-11T19:44:09.848Z,53.38
2018-09-11T19:46:36.165Z,53.44
2018-09-11T19:49:02.519Z,53.74
2018-09-11T19:51:28.843Z,54.38
2018-09-11T19:53:55.161Z,55.02
2018-09-11T19:56:21.484Z,54.73
2018-09-11T19:58:47.807Z,55.18
2018-09-11T20:01:14.107Z,55.49
2018-09-11T20:03:40.417Z,55.15
2018-09-11T20:06:06.736Z,55.67
2018-09-11T20:08:33.092Z,55.42
2018-09-11T20:10:59.407Z,55.10
2018-09-11T20:13:25.729Z,55.65
2018-09-11T20:15:52.046Z,55.92
2018-09-11T20:18:18.372Z,56.57
2018-09-11T20:20:44.721Z,57.27
2018-09-11T20:23:11.044Z,58.13
2018-09-11T20:25:37.352Z,58.23
2018-09-11T20:28:03.746Z,58.29
2018-09-11T20:30:30.022Z,58.65
2018-09-11T20:32:56.424Z,59.15
2018-09-11T20:35:22.742Z,59.91
2018-09-11T20:37:49.056Z,59.93
2018-09-11T20:40:15.373Z,60.11
2018-09-11T20:42:41.719Z,60.45
2018-09-11T20:45:08.101Z,61.05
2018-09-11T20:47:34.355Z,61.20
2018-09-11T20:50:00.669Z,61.15
2018-09-11T20:52:26.990Z,61.42
2018-09-11T20:54:53.312Z,62.07
2018-09-11T20:57:19.636Z,62.10
2018-09-11T20:59:45.970Z,62.11
2018-09-11T21:02:12.299Z,62.69
2018-09-11T21:04:38.610Z,62.63
2018-09-11T21:07:04.939Z,62.73
2018-09-11T21:09:31.266Z,63.70
2018-09-11T21:11:57.574Z,63.34
2018-09-11T21:14:23.887Z,63.71
2018-09-11T21:16:50.208Z,63.69
2018-09-11T21:19:16.515Z,63.04
2018-09-11T21:21:42.865Z,63.36
2018-09-11T21:24:09.191Z,64.23
2018-09-11T21:26:35.519Z,64.47
2018-09-11T21:29:01.842Z,64.48
2018-09-11T21:31:28.171Z,64.31
2018-09-11T21:33:54.494Z,64.01
2018-09-11T21:36:20.801Z,64.11
2018-09-11T21:38:47.118Z,65.33
2018-09-11T21:41:13.485Z,65.87
2018-09-11T21:43:39.802Z,65.39
2018-09-11T21:46:06.141Z,65.68
2018-09-11T21:48:32.436Z,65.58
2018-09-11T21:50:58.755Z,66.05
2018-09-11T21:53:25.110Z,65.71
2018-09-11T21:55:54.307Z,66.02
2018-09-11T21:58:20.602Z,66.67
2018-09-11T22:00:53.030Z,66.69
2018-09-11T22:03:21.959Z,66.24
2018-09-11T22:05:48.309Z,67.22
2018-09-11T22:08:14.592Z,67.27
2018-09-11T22:10:40.953Z,67.10
2018-09-11T22:13:07.233Z,67.76
2018-09-11T22:15:33.544Z,68.29
2018-09-11T22:17:59.874Z,68.43
2018-09-11T22:20:26.179Z,69.04
2018-09-11T22:22:52.487Z,68.37
2018-09-11T22:25:18.795Z,68.62
2018-09-11T22:27:45.104Z,68.94
2018-09-11T22:30:11.452Z,69.07
2018-09-11T22:32:37.772Z,68.93
2018-09-11T22:35:04.079Z,68.48
2018-09-11T22:37:30.392Z,68.63
2018-09-11T22:39:56.743Z,68.53
2018-09-11T22:42:23.106Z,68.52
2018-09-11T22:44:49.371Z,68.84
2018-09-11T22:47:15.684Z,69.80
2018-09-11T22:49:42.035Z,69.71
2018-09-11T22:52:08.316Z,69.48
2018-09-11T22:54:34.674Z,69.34
2018-09-11T22:57:00.986Z,69.60
2018-09-11T22:59:27.304Z,69.59
2018-09-11T23:01:53.614Z,69.25
2018-09-11T23:04:19.979Z,69.67
2018-09-11T23:06:46.306Z,69.72
2018-09-11T23:09:12.650Z,69.76
2018-09-11T23:11:38.955Z,69.87
2018-09-11T23:14:05.311Z,69.90
2018-09-11T23:16:31.617Z,70.23
2018-09-11T23:18:57.943Z,69.69
2018-09-11T23:21:24.252Z,70.21
2018-09-11T23:23:50.582Z,70.62
2018-09-11T23:26:16.892Z,69.82
2018-09-11T23:28:43.205Z,70.00
2018-09-11T23:31:09.562Z,69.94
2018-09-11T23:33:35.936Z,70.19
2018-09-11T23:36:02.248Z,70.53
2018-09-11T23:38:28.572Z,71.84
2018-09-11T23:40:54.892Z,71.81
2018-09-11T23:43:21.211Z,72.03
2018-09-11T23:45:47.523Z,71.82
2018-09-11T23:48:13.843Z,71.61
2018-09-11T23:50:40.148Z,72.40
2018-09-11T23:53:06.463Z,72.44
2018-09-11T23:55:32.783Z,72.84
2018-09-11T23:57:59.099Z,73.03
